createdAt,value
2022-11-29T00:00:52.458Z,7.10
2022-11-29T00:03:21.079Z,7.10
2022-11-29T00:05:49.852Z,7.10
2022-11-29T00:08:18.915Z,7.10
2022-11-29T00:10:47.404Z,7.10
2022-11-29T00:13:16.250Z,7.10
2022-11-29T00:15:44.778Z,7.20
2022-11-29T00:18:15.123Z,7.20
2022-11-29T00:20:43.624Z,7.20
2022-11-29T00:23:13.234Z,7.20
2022-11-29T00:25:41.600Z,7.20
2022-11-29T00:28:10.599Z,7.20
2022-11-29T00:30:39.385Z,7.20
2022-11-29T00:33:08.375Z,7.20
2022-11-29T00:35:39.826Z,7.10
2022-11-29T00:38:09.293Z,7.10
2022-11-29T00:40:39.990Z,7.10
2022-11-29T00:43:08.609Z,7.00
2022-11-29T00:45:37.263Z,6.90
2022-11-29T00:48:06.233Z,6.90
2022-11-29T00:50:34.905Z,6.90
2022-11-29T00:53:05.906Z,6.80
2022-11-29T00:55:34.672Z,6.80
2022-11-29T00:58:05.187Z,6.80
2022-11-29T01:00:34.802Z,6.80
2022-11-29T01:03:06.330Z,6.80
2022-11-29T01:05:36.748Z,6.80
2022-11-29T01:08:07.392Z,6.90
2022-11-29T01:10:35.872Z,6.90
2022-11-29T01:13:04.846Z,6.90
2022-11-29T01:15:33.475Z,6.80
2022-11-29T01:18:08.341Z,6.90
2022-11-29T01:20:37.326Z,6.90
2022-11-29T01:23:08.643Z,6.90
2022-11-29T01:25:37.294Z,6.90
2022-11-29T01:28:06.440Z,6.90
2022-11-29T01:30:35.090Z,6.90
2022-11-29T01:33:04.785Z,6.90
2022-11-29T01:35:37.874Z,6.90
2022-11-29T01:38:10.930Z,7.00
2022-11-29T01:40:44.367Z,7.00
2022-11-29T01:43:17.946Z,7.00
2022-11-29T01:45:46.443Z,7.00
2022-11-29T01:48:15.552Z,7.00
2022-11-29T01:50:44.883Z,7.00
2022-11-29T01:53:17.804Z,7.00
2022-11-29T01:55:52.841Z,7.00
2022-11-29T01:58:24.092Z,7.00
2022-11-29T02:00:52.316Z,7.00
2022-11-29T02:03:22.841Z,7.00
2022-11-29T02:05:53.943Z,7.00
2022-11-29T02:08:28.062Z,7.00
2022-11-29T02:11:10.155Z,7.00
2022-11-29T02:13:48.499Z,7.00
2022-11-29T02:16:23.050Z,6.90
2022-11-29T02:19:00.268Z,6.90
2022-11-29T02:21:39.193Z,6.90
2022-11-29T02:24:33.619Z,6.90
2022-11-29T02:27:22.134Z,6.90
2022-11-29T02:30:20.750Z,6.90
2022-11-29T02:33:16.105Z,6.90
2022-11-29T02:36:13.039Z,6.90
2022-11-29T02:39:19.256Z,6.90
2022-11-29T02:42:09.844Z,6.90
2022-11-29T02:45:06.108Z,6.80
2022-11-29T02:47:45.208Z,6.90
2022-11-29T02:50:38.189Z,6.90
2022-11-29T02:53:15.882Z,7.00
2022-11-29T02:55:54.992Z,6.90
2022-11-29T02:58:29.128Z,6.90
2022-11-29T03:01:04.339Z,6.90
2022-11-29T03:03:40.003Z,6.90
2022-11-29T03:06:23.187Z,6.90
2022-11-29T03:08:59.658Z,6.80
2022-11-29T03:11:33.814Z,6.80
2022-11-29T03:14:15.801Z,6.70
2022-11-29T03:16:52.729Z,6.70
2022-11-29T03:19:37.231Z,6.60
2022-11-29T03:22:14.935Z,6.60
2022-11-29T03:24:50.987Z,6.60
2022-11-29T03:27:26.671Z,6.60
2022-11-29T03:30:00.675Z,6.60
2022-11-29T03:32:35.514Z,6.60
2022-11-29T03:35:08.734Z,6.60
2022-11-29T03:37:47.595Z,6.60
2022-11-29T03:40:23.252Z,6.60
2022-11-29T03:42:58.200Z,6.60
2022-11-29T03:45:29.868Z,6.70
2022-11-29T03:48:05.114Z,6.60
2022-11-29T03:50:37.560Z,6.70
2022-11-29T03:53:19.830Z,6.70
2022-11-29T03:55:59.166Z,6.70
2022-11-29T03:58:46.217Z,6.80
2022-11-29T04:01:53.558Z,6.80
2022-11-29T04:04:52.591Z,6.80
2022-11-29T04:07:51.042Z,6.90
2022-11-29T04:10:35.722Z,6.90
2022-11-29T04:13:31.845Z,6.90
2022-11-29T04:16:41.610Z,6.90
2022-11-29T04:19:49.700Z,6.90
2022-11-29T04:22:28.826Z,6.90
2022-11-29T04:25:34.834Z,7.00
2022-11-29T04:28:23.546Z,7.00
2022-11-29T04:31:03.823Z,7.00
2022-11-29T04:34:04.590Z,7.10
2022-11-29T04:36:50.602Z,7.00
2022-11-29T04:39:46.126Z,7.10
2022-11-29T04:42:34.055Z,7.10
2022-11-29T04:45:47.270Z,7.10
2022-11-29T04:48:32.949Z,7.10
2022-11-29T04:51:11.825Z,7.10
2022-11-29T04:54:02.244Z,7.10
2022-11-29T04:56:40.996Z,7.10
2022-11-29T04:59:20.920Z,7.10
2022-11-29T05:02:02.560Z,7.10
2022-11-29T05:04:41.333Z,7.10
2022-11-29T05:07:18.409Z,7.10
2022-11-29T05:10:02.999Z,7.20
2022-11-29T05:12:35.634Z,7.10
2022-11-29T05:15:23.546Z,7.20
2022-11-29T05:18:00.494Z,7.20
2022-11-29T05:20:42.220Z,7.30
2022-11-29T05:23:32.202Z,7.30
2022-11-29T05:26:06.197Z,7.30
2022-11-29T05:28:42.268Z,7.20
2022-11-29T05:34:38.087Z,7.20
2022-11-29T05:37:16.041Z,7.20
2022-11-29T05:39:58.039Z,7.20
2022-11-29T05:43:05.872Z,7.20
2022-11-29T05:45:42.310Z,7.10
2022-11-29T05:48:23.413Z,7.10
2022-11-29T05:51:08.901Z,7.10
2022-11-29T05:53:46.144Z,7.20
2022-11-29T05:56:25.305Z,7.20
2022-11-29T05:58:58.247Z,7.20
2022-11-29T06:01:31.916Z,7.20
2022-11-29T06:04:14.602Z,7.20
2022-11-29T06:06:50.924Z,7.20
2022-11-29T06:09:26.573Z,7.20
2022-11-29T06:12:02.451Z,7.20
2022-11-29T06:14:50.893Z,7.20
2022-11-29T06:17:49.984Z,7.20
2022-11-29T06:21:04.374Z,7.20
2022-11-29T06:23:52.072Z,7.20
2022-11-29T06:26:42.295Z,7.20
2022-11-29T06:29:26.981Z,7.20
2022-11-29T06:32:02.228Z,7.20
2022-11-29T06:34:43.383Z,7.20
2022-11-29T06:37:18.244Z,7.20
2022-11-29T06:39:48.819Z,7.20
2022-11-29T06:42:17.103Z,7.20
2022-11-29T06:44:46.102Z,7.20
2022-11-29T06:47:21.023Z,7.20
2022-11-29T06:49:53.365Z,7.20
2022-11-29T06:52:32.303Z,7.20
2022-11-29T06:55:12.012Z,7.20
2022-11-29T06:57:53.928Z,7.20
2022-11-29T07:00:25.659Z,7.10
2022-11-29T07:03:17.343Z,7.10
2022-11-29T07:05:46.991Z,7.00
2022-11-29T07:08:19.084Z,7.00
2022-11-29T07:10:53.186Z,7.00
2022-11-29T07:13:24.312Z,6.90
2022-11-29T07:16:02.455Z,6.90
2022-11-29T07:18:40.598Z,7.00
2022-11-29T07:21:22.389Z,6.90
2022-11-29T07:24:04.321Z,6.90
2022-11-29T07:26:41.022Z,6.90
2022-11-29T07:29:25.290Z,6.90
2022-11-29T07:32:03.001Z,6.90
2022-11-29T07:34:41.946Z,6.90
2022-11-29T07:37:27.069Z,6.90
2022-11-29T07:40:04.457Z,6.90
2022-11-29T07:42:43.907Z,6.90
2022-11-29T07:45:19.601Z,7.00
2022-11-29T07:47:48.951Z,7.00
2022-11-29T07:50:19.123Z,7.00
2022-11-29T07:52:49.698Z,7.10
2022-11-29T07:55:21.454Z,7.10
2022-11-29T07:57:51.898Z,7.10
2022-11-29T08:00:22.097Z,7.10
2022-11-29T08:02:53.196Z,7.20
2022-11-29T08:05:23.123Z,7.10
2022-11-29T08:07:51.746Z,7.10
2022-11-29T08:10:21.409Z,7.10
2022-11-29T08:12:52.910Z,7.20
2022-11-29T08:15:23.429Z,7.20
2022-11-29T08:17:52.998Z,7.30
2022-11-29T08:20:21.716Z,7.30
2022-11-29T08:22:58.566Z,7.30
2022-11-29T08:25:28.221Z,7.30
2022-11-29T08:27:58.444Z,7.30
2022-11-29T08:30:27.285Z,7.30
2022-11-29T08:32:56.521Z,7.30
2022-11-29T08:35:26.843Z,7.30
2022-11-29T08:37:56.749Z,7.30
2022-11-29T08:40:25.740Z,7.30
2022-11-29T08:42:58.030Z,7.40
2022-11-29T08:45:29.188Z,7.40
2022-11-29T08:47:57.881Z,7.40
2022-11-29T08:50:28.260Z,7.40
2022-11-29T08:53:17.147Z,7.50
2022-11-29T08:55:46.669Z,7.50
2022-11-29T08:58:16.254Z,7.50
2022-11-29T09:00:48.632Z,7.50
2022-11-29T09:03:34.227Z,7.50
2022-11-29T09:06:12.045Z,7.60
2022-11-29T09:08:43.805Z,7.60
2022-11-29T09:11:15.325Z,7.60
2022-11-29T09:13:44.769Z,7.60
2022-11-29T09:16:20.148Z,7.60
2022-11-29T09:18:52.071Z,7.60
2022-11-29T09:21:21.193Z,7.70
2022-11-29T09:23:50.900Z,7.70
2022-11-29T09:26:21.572Z,7.70
2022-11-29T09:28:50.231Z,7.70
2022-11-29T09:31:21.522Z,7.80
2022-11-29T09:33:52.358Z,7.80
2022-11-29T09:36:26.584Z,7.90
2022-11-29T09:38:57.498Z,7.90
2022-11-29T09:41:43.055Z,7.90
2022-11-29T09:44:21.171Z,7.90
2022-11-29T09:47:02.273Z,7.90
2022-11-29T09:49:51.874Z,7.90
2022-11-29T09:52:34.187Z,7.90
2022-11-29T09:55:17.477Z,8.00
2022-11-29T09:57:46.388Z,8.00
2022-11-29T10:00:20.046Z,8.10
2022-11-29T10:02:55.192Z,8.10
2022-11-29T10:05:28.510Z,8.20
2022-11-29T10:08:01.048Z,8.20
2022-11-29T10:10:37.863Z,8.20
2022-11-29T10:13:13.269Z,8.30
2022-11-29T10:15:44.974Z,8.40
2022-11-29T10:18:20.498Z,8.50
2022-11-29T10:20:52.262Z,8.60
2022-11-29T10:23:26.663Z,8.60
2022-11-29T10:25:57.322Z,8.70
2022-11-29T10:28:30.840Z,8.70
2022-11-29T10:31:07.883Z,8.60
2022-11-29T10:33:42.522Z,8.50
2022-11-29T10:36:27.785Z,8.50
2022-11-29T10:39:00.583Z,8.60
2022-11-29T10:41:29.343Z,8.60
2022-11-29T10:44:01.071Z,8.60
2022-11-29T10:46:36.827Z,8.60
2022-11-29T10:49:11.864Z,8.70
2022-11-29T10:51:41.344Z,8.80
2022-11-29T10:54:25.318Z,8.80
2022-11-29T10:56:56.579Z,8.90
2022-11-29T10:59:27.646Z,8.90
2022-11-29T11:01:58.203Z,9.00
2022-11-29T11:04:33.267Z,9.00
2022-11-29T11:07:04.097Z,9.00
2022-11-29T11:09:38.016Z,9.10
2022-11-29T11:12:09.220Z,9.10
2022-11-29T11:14:39.652Z,9.10
2022-11-29T11:17:26.004Z,9.10
2022-11-29T11:20:01.556Z,9.20
2022-11-29T11:22:32.804Z,9.30
2022-11-29T11:25:04.511Z,9.30
2022-11-29T11:27:35.051Z,9.30
2022-11-29T11:30:06.153Z,9.40
2022-11-29T11:32:39.158Z,9.40
2022-11-29T11:35:24.991Z,9.40
2022-11-29T11:38:00.801Z,9.40
2022-11-29T11:40:31.882Z,9.50
2022-11-29T11:43:03.118Z,9.50
2022-11-29T11:45:37.058Z,9.50
2022-11-29T11:48:14.192Z,9.50
2022-11-29T11:50:46.444Z,9.50
2022-11-29T11:53:25.393Z,9.50
2022-11-29T11:56:02.221Z,9.50
2022-11-29T11:58:34.234Z,9.50
2022-11-29T12:01:18.456Z,9.50
2022-11-29T12:04:01.892Z,9.60
2022-11-29T12:06:42.356Z,9.60
2022-11-29T12:09:25.275Z,9.60
2022-11-29T12:12:01.644Z,9.60
2022-11-29T12:14:42.042Z,9.60
2022-11-29T12:17:20.364Z,9.60
2022-11-29T12:20:01.195Z,9.60
2022-11-29T12:22:48.040Z,9.60
2022-11-29T12:25:22.094Z,9.60
2022-11-29T12:27:52.218Z,9.60
2022-11-29T12:30:23.157Z,9.70
2022-11-29T12:33:05.357Z,9.70
2022-11-29T12:35:46.430Z,9.80
2022-11-29T12:38:36.787Z,9.90
2022-11-29T12:41:21.369Z,10.10
2022-11-29T12:44:05.283Z,10.20
2022-11-29T12:46:35.119Z,10.40
2022-11-29T12:49:14.331Z,10.50
2022-11-29T12:51:54.459Z,10.60
2022-11-29T12:54:37.250Z,10.80
2022-11-29T12:57:13.739Z,11.00
2022-11-29T13:00:00.841Z,11.20
2022-11-29T13:02:43.014Z,11.40
2022-11-29T13:05:21.139Z,11.60
2022-11-29T13:08:04.907Z,11.60
2022-11-29T13:10:53.854Z,11.70
2022-11-29T13:13:31.684Z,11.80
2022-11-29T13:16:07.820Z,11.80
2022-11-29T13:18:44.278Z,11.80
2022-11-29T13:21:16.551Z,11.90
2022-11-29T13:24:09.741Z,11.80
2022-11-29T13:26:42.394Z,11.80
2022-11-29T13:29:16.663Z,11.80
2022-11-29T13:31:47.645Z,11.60
2022-11-29T13:34:21.042Z,11.40
2022-11-29T13:37:02.107Z,11.30
2022-11-29T13:39:51.953Z,11.30
2022-11-29T13:42:29.290Z,11.30
2022-11-29T13:45:04.840Z,11.30
2022-11-29T13:47:33.404Z,11.20
2022-11-29T13:50:06.435Z,11.20
2022-11-29T13:52:43.684Z,11.20
2022-11-29T13:55:34.380Z,11.20
2022-11-29T13:58:36.564Z,11.10
2022-11-29T14:01:09.542Z,11.10
2022-11-29T14:03:41.792Z,11.10
2022-11-29T14:06:12.815Z,11.10
2022-11-29T14:09:17.381Z,11.00
2022-11-29T14:11:46.578Z,11.00
2022-11-29T14:14:25.911Z,10.90
2022-11-29T14:16:59.095Z,10.90
2022-11-29T14:19:34.300Z,10.90
2022-11-29T14:22:22.651Z,11.00
2022-11-29T14:25:11.789Z,11.00
2022-11-29T14:28:03.490Z,11.00
2022-11-29T14:31:45.362Z,11.10
2022-11-29T14:34:36.395Z,11.10
2022-11-29T14:37:16.437Z,11.20
2022-11-29T14:39:49.237Z,11.20
2022-11-29T14:42:19.700Z,11.20
2022-11-29T14:44:53.072Z,11.20
2022-11-29T14:47:26.446Z,11.10
2022-11-29T14:49:58.992Z,11.10
2022-11-29T14:52:34.346Z,11.00
2022-11-29T14:55:06.911Z,11.00
2022-11-29T14:57:56.153Z,10.90
2022-11-29T15:00:26.821Z,10.90
2022-11-29T15:02:59.386Z,10.80
2022-11-29T15:05:35.106Z,10.70
2022-11-29T15:08:10.619Z,10.70
2022-11-29T15:10:43.073Z,10.60
2022-11-29T15:13:15.560Z,10.60
2022-11-29T15:16:09.212Z,10.50
2022-11-29T15:19:00.572Z,10.40
2022-11-29T15:21:41.141Z,10.30
2022-11-29T15:24:13.181Z,10.20
2022-11-29T15:26:58.012Z,10.20
2022-11-29T15:29:29.068Z,10.10
2022-11-29T15:32:00.332Z,10.00
2022-11-29T15:38:18.277Z,9.90
2022-11-29T15:40:53.620Z,9.80
2022-11-29T15:43:30.309Z,9.70
2022-11-29T15:45:59.551Z,9.60
2022-11-29T15:48:33.530Z,9.60
2022-11-29T15:51:06.066Z,9.50
2022-11-29T15:53:40.903Z,9.40
2022-11-29T15:56:18.757Z,9.30
2022-11-29T15:58:49.218Z,9.20
2022-11-29T16:01:22.536Z,9.10
2022-11-29T16:03:55.354Z,9.00
2022-11-29T16:06:29.968Z,8.90
2022-11-29T16:09:01.284Z,8.80
2022-11-29T16:11:32.356Z,8.70
2022-11-29T16:14:13.680Z,8.60
2022-11-29T16:16:46.448Z,8.50
2022-11-29T16:19:27.131Z,8.40
2022-11-29T16:22:09.211Z,8.30
2022-11-29T16:24:41.818Z,8.20
2022-11-29T16:27:11.550Z,8.10
2022-11-29T16:29:47.961Z,7.90
2022-11-29T16:32:28.727Z,7.70
2022-11-29T16:34:58.366Z,7.40
2022-11-29T16:37:32.687Z,7.10
2022-11-29T16:40:03.401Z,7.00
2022-11-29T16:42:34.017Z,6.80
2022-11-29T16:45:34.277Z,6.80
2022-11-29T16:48:04.771Z,6.50
2022-11-29T16:50:35.467Z,6.20
2022-11-29T16:53:38.863Z,6.20
2022-11-29T16:56:12.251Z,6.00
2022-11-29T16:59:16.646Z,5.90
2022-11-29T17:01:32.644Z,5.70
2022-11-29T17:04:02.137Z,5.60
2022-11-29T17:06:31.433Z,5.50
2022-11-29T17:09:05.437Z,5.40
2022-11-29T17:11:35.463Z,5.40
2022-11-29T17:14:04.051Z,5.20
2022-11-29T17:16:32.758Z,5.10
2022-11-29T17:19:01.182Z,5.00
2022-11-29T17:21:31.405Z,4.90
2022-11-29T17:24:00.096Z,4.70
2022-11-29T17:26:29.089Z,4.70
2022-11-29T17:28:59.168Z,4.60
2022-11-29T17:31:27.687Z,4.60
2022-11-29T17:33:55.880Z,4.70
2022-11-29T17:36:24.062Z,4.70
2022-11-29T17:38:53.593Z,4.60
2022-11-29T17:41:24.005Z,4.60
2022-11-29T17:43:55.123Z,4.60
2022-11-29T17:46:27.282Z,4.50
2022-11-29T17:48:56.334Z,4.50
2022-11-29T17:54:16.187Z,4.40
2022-11-29T17:56:45.117Z,4.30
2022-11-29T17:59:15.161Z,4.20
2022-11-29T18:01:47.557Z,4.20
2022-11-29T18:04:16.406Z,4.10
2022-11-29T18:06:50.247Z,4.10
2022-11-29T18:09:20.031Z,4.10
2022-11-29T18:11:52.594Z,4.10
2022-11-29T18:14:23.110Z,4.20
2022-11-29T18:16:54.051Z,4.20
2022-11-29T18:19:23.970Z,4.20
2022-11-29T18:21:52.891Z,4.20
2022-11-29T18:24:21.311Z,4.20
2022-11-29T18:26:49.947Z,4.20
2022-11-29T18:29:21.484Z,4.20
2022-11-29T18:31:50.296Z,4.30
2022-11-29T18:34:21.683Z,4.30
2022-11-29T18:36:51.436Z,4.30
2022-11-29T18:39:23.857Z,4.40
2022-11-29T18:41:53.187Z,4.30
2022-11-29T18:44:29.340Z,4.20
2022-11-29T18:46:59.656Z,4.10
2022-11-29T18:49:30.717Z,4.00
2022-11-29T18:51:59.961Z,3.80
2022-11-29T18:54:32.406Z,3.70
2022-11-29T18:57:01.557Z,3.60
2022-11-29T18:59:30.290Z,3.60
2022-11-29T19:02:00.370Z,3.60
2022-11-29T19:04:30.669Z,3.60
2022-11-29T19:06:59.634Z,3.60
2022-11-29T19:09:28.292Z,3.60
2022-11-29T19:11:57.135Z,3.50
2022-11-29T19:14:25.529Z,3.50
2022-11-29T19:16:55.240Z,3.50
2022-11-29T19:19:26.694Z,3.50
2022-11-29T19:21:56.967Z,3.40
2022-11-29T19:24:29.513Z,3.40
2022-11-29T19:27:03.128Z,3.40
2022-11-29T19:29:36.649Z,3.30
2022-11-29T19:32:08.556Z,3.40
2022-11-29T19:34:37.100Z,3.50
2022-11-29T19:37:09.369Z,3.50
2022-11-29T19:39:39.173Z,3.60
2022-11-29T19:42:10.913Z,3.60
2022-11-29T19:45:14.684Z,3.60
2022-11-29T19:47:31.854Z,3.50
2022-11-29T19:50:02.643Z,3.40
2022-11-29T19:52:33.419Z,3.30
2022-11-29T19:55:02.507Z,3.20
2022-11-29T19:57:32.808Z,3.20
2022-11-29T20:00:01.184Z,3.20
2022-11-29T20:05:57.310Z,3.20
2022-11-29T20:08:27.354Z,3.20
2022-11-29T20:10:56.256Z,3.20
2022-11-29T20:13:25.530Z,3.30
2022-11-29T20:15:54.362Z,3.40
2022-11-29T20:18:23.916Z,3.50
2022-11-29T20:20:52.760Z,3.60
2022-11-29T20:23:23.147Z,3.70
2022-11-29T20:25:54.472Z,3.80
2022-11-29T20:28:22.774Z,4.00
2022-11-29T20:30:55.458Z,4.10
2022-11-29T20:33:30.034Z,4.10
2022-11-29T20:36:06.795Z,4.20
2022-11-29T20:38:45.176Z,4.30
2022-11-29T20:41:22.789Z,4.40
2022-11-29T20:43:57.176Z,4.50
2022-11-29T20:46:28.998Z,4.60
2022-11-29T20:49:03.121Z,4.60
2022-11-29T20:51:41.735Z,4.70
2022-11-29T20:54:13.257Z,4.70
2022-11-29T20:56:43.444Z,4.70
2022-11-29T20:59:12.664Z,4.70
2022-11-29T21:01:42.777Z,4.70
2022-11-29T21:04:15.132Z,4.70
2022-11-29T21:06:46.413Z,4.70
2022-11-29T21:09:14.778Z,4.60
2022-11-29T21:11:45.672Z,4.50
2022-11-29T21:14:14.942Z,4.50
2022-11-29T21:16:45.021Z,4.50
2022-11-29T21:19:20.477Z,4.40
2022-11-29T21:22:01.516Z,4.50
2022-11-29T21:24:41.127Z,4.40
2022-11-29T21:27:15.360Z,4.40
2022-11-29T21:29:44.677Z,4.30
2022-11-29T21:32:22.067Z,4.20
2022-11-29T21:34:50.893Z,4.10
2022-11-29T21:37:21.242Z,3.90
2022-11-29T21:39:52.355Z,3.80
2022-11-29T21:42:22.246Z,3.60
2022-11-29T21:44:50.887Z,3.50
2022-11-29T21:47:20.926Z,3.40
2022-11-29T21:49:51.517Z,3.30
2022-11-29T21:52:22.796Z,3.20
2022-11-29T21:54:52.231Z,3.10
2022-11-29T21:57:22.209Z,3.00
2022-11-29T21:59:50.804Z,2.90
2022-11-29T22:02:19.734Z,2.80
2022-11-29T22:04:48.848Z,2.80
2022-11-29T22:07:18.898Z,2.80
2022-11-29T22:09:47.751Z,2.70
2022-11-29T22:12:32.916Z,2.70
2022-11-29T22:15:03.765Z,2.60
2022-11-29T22:17:33.721Z,2.60
2022-11-29T22:20:02.347Z,2.50
2022-11-29T22:22:32.271Z,2.50
2022-11-29T22:25:01.268Z,2.50
2022-11-29T22:27:30.044Z,2.40
2022-11-29T22:29:58.958Z,2.40
2022-11-29T22:32:29.712Z,2.30
2022-11-29T22:35:00.736Z,2.30
2022-11-29T22:37:29.707Z,2.20
2022-11-29T22:39:58.084Z,2.20
2022-11-29T22:42:27.822Z,2.20
2022-11-29T22:44:56.357Z,2.20
2022-11-29T22:47:26.828Z,2.30
2022-11-29T22:49:57.383Z,2.30
2022-11-29T22:52:26.371Z,2.30
2022-11-29T22:54:58.677Z,2.40
2022-11-29T22:57:29.690Z,2.50
2022-11-29T23:00:00.095Z,2.60
2022-11-29T23:02:30.231Z,2.70
2022-11-29T23:05:00.420Z,2.80
2022-11-29T23:07:29.454Z,3.00
2022-11-29T23:09:59.468Z,3.00
2022-11-29T23:12:28.685Z,3.10
2022-11-29T23:14:57.867Z,3.20
2022-11-29T23:17:27.545Z,3.30
2022-11-29T23:19:56.584Z,3.30
2022-11-29T23:22:27.063Z,3.30
2022-11-29T23:24:55.868Z,3.30
2022-11-29T23:27:25.905Z,3.30
2022-11-29T23:29:56.552Z,3.30
2022-11-29T23:32:25.338Z,3.30
2022-11-29T23:34:53.969Z,3.20
2022-11-29T23:37:22.762Z,3.20
2022-11-29T23:39:54.444Z,3.20
2022-11-29T23:42:25.332Z,3.20
2022-11-29T23:44:54.289Z,3.30
2022-11-29T23:47:22.931Z,3.30
2022-11-29T23:49:52.389Z,3.30
2022-11-29T23:52:21.383Z,3.20
2022-11-29T23:54:50.327Z,3.30
2022-11-29T23:57:20.335Z,3.20
2022-11-29T23:59:51.391Z,3.30
